sensor_id;sensor_type;location;lat;lon;timestamp;P1;durP1;ratioP1;P2;durP2;ratioP2
11839;SDS011;5979;50.800;4.904;2023-06-10T00:01:41;10.25;;;9.55;;
11839;SDS011;5979;50.800;4.904;2023-06-10T00:04:08;9.40;;;8.63;;
11839;SDS011;5979;50.800;4.904;2023-06-10T00:06:34;9.40;;;8.70;;
11839;SDS011;5979;50.800;4.904;2023-06-10T00:09:05;9.88;;;9.07;;
11839;SDS011;5979;50.800;4.904;2023-06-10T00:11:35;9.50;;;8.73;;
11839;SDS011;5979;50.800;4.904;2023-06-10T00:14:04;9.43;;;8.52;;
11839;SDS011;5979;50.800;4.904;2023-06-10T00:16:29;10.00;;;9.02;;
11839;SDS011;5979;50.800;4.904;2023-06-10T00:18:55;10.52;;;9.70;;
11839;SDS011;5979;50.800;4.904;2023-06-10T00:21:27;9.68;;;8.88;;
11839;SDS011;5979;50.800;4.904;2023-06-10T00:23:53;10.10;;;9.20;;
11839;SDS011;5979;50.800;4.904;2023-06-10T00:26:21;9.13;;;8.50;;
11839;SDS011;5979;50.800;4.904;2023-06-10T00:28:47;11.13;;;9.63;;
11839;SDS011;5979;50.800;4.904;2023-06-10T00:31:13;9.85;;;9.05;;
11839;SDS011;5979;50.800;4.904;2023-06-10T00:33:38;8.65;;;8.15;;
11839;SDS011;5979;50.800;4.904;2023-06-10T00:36:04;9.40;;;8.70;;
11839;SDS011;5979;50.800;4.904;2023-06-10T00:38:30;10.55;;;9.65;;
11839;SDS011;5979;50.800;4.904;2023-06-10T00:40:56;10.25;;;9.35;;
11839;SDS011;5979;50.800;4.904;2023-06-10T00:43:22;9.43;;;8.82;;
11839;SDS011;5979;50.800;4.904;2023-06-10T00:45:48;9.65;;;8.85;;
11839;SDS011;5979;50.800;4.904;2023-06-10T00:48:14;10.63;;;9.82;;
11839;SDS011;5979;50.800;4.904;2023-06-10T00:50:40;9.52;;;8.82;;
11839;SDS011;5979;50.800;4.904;2023-06-10T00:53:06;10.00;;;9.20;;
11839;SDS011;5979;50.800;4.904;2023-06-10T00:55:33;9.32;;;8.70;;
11839;SDS011;5979;50.800;4.904;2023-06-10T00:57:59;9.45;;;8.73;;
11839;SDS011;5979;50.800;4.904;2023-06-10T01:00:25;9.85;;;9.15;;
11839;SDS011;5979;50.800;4.904;2023-06-10T01:02:51;9.32;;;8.57;;
11839;SDS011;5979;50.800;4.904;2023-06-10T01:05:20;10.43;;;9.45;;
11839;SDS011;5979;50.800;4.904;2023-06-10T01:10:43;10.80;;;9.90;;
11839;SDS011;5979;50.800;4.904;2023-06-10T01:13:16;11.63;;;9.55;;
11839;SDS011;5979;50.800;4.904;2023-06-10T01:15:43;9.57;;;8.90;;
11839;SDS011;5979;50.800;4.904;2023-06-10T01:18:09;9.38;;;8.77;;
11839;SDS011;5979;50.800;4.904;2023-06-10T01:20:40;9.80;;;9.10;;
11839;SDS011;5979;50.800;4.904;2023-06-10T01:23:08;10.32;;;9.52;;
11839;SDS011;5979;50.800;4.904;2023-06-10T01:25:40;9.45;;;8.82;;
11839;SDS011;5979;50.800;4.904;2023-06-10T01:28:33;9.60;;;9.00;;
11839;SDS011;5979;50.800;4.904;2023-06-10T01:33:43;10.63;;;9.68;;
11839;SDS011;5979;50.800;4.904;2023-06-10T01:36:12;11.05;;;10.18;;
11839;SDS011;5979;50.800;4.904;2023-06-10T01:38:41;10.77;;;9.35;;
11839;SDS011;5979;50.800;4.904;2023-06-10T01:41:09;9.32;;;8.70;;
11839;SDS011;5979;50.800;4.904;2023-06-10T01:43:37;10.60;;;9.75;;
11839;SDS011;5979;50.800;4.904;2023-06-10T01:46:03;9.35;;;8.63;;
11839;SDS011;5979;50.800;4.904;2023-06-10T01:48:29;10.50;;;9.75;;
11839;SDS011;5979;50.800;4.904;2023-06-10T01:50:55;9.60;;;8.70;;
11839;SDS011;5979;50.800;4.904;2023-06-10T01:53:21;10.27;;;9.57;;
11839;SDS011;5979;50.800;4.904;2023-06-10T01:55:50;10.43;;;9.65;;
11839;SDS011;5979;50.800;4.904;2023-06-10T01:58:16;10.40;;;9.65;;
11839;SDS011;5979;50.800;4.904;2023-06-10T02:00:42;9.68;;;8.98;;
11839;SDS011;5979;50.800;4.904;2023-06-10T02:03:07;11.43;;;10.52;;
11839;SDS011;5979;50.800;4.904;2023-06-10T02:05:33;9.55;;;8.90;;
11839;SDS011;5979;50.800;4.904;2023-06-10T02:07:59;12.07;;;9.82;;
11839;SDS011;5979;50.800;4.904;2023-06-10T02:10:25;11.27;;;10.27;;
11839;SDS011;5979;50.800;4.904;2023-06-10T02:12:51;10.93;;;10.13;;
11839;SDS011;5979;50.800;4.904;2023-06-10T02:15:17;11.23;;;10.27;;
11839;SDS011;5979;50.800;4.904;2023-06-10T02:17:42;9.95;;;9.15;;
11839;SDS011;5979;50.800;4.904;2023-06-10T02:20:09;11.32;;;10.40;;
11839;SDS011;5979;50.800;4.904;2023-06-10T02:22:36;10.68;;;9.90;;
11839;SDS011;5979;50.800;4.904;2023-06-10T02:25:02;10.65;;;9.75;;
11839;SDS011;5979;50.800;4.904;2023-06-10T02:27:29;12.25;;;11.35;;
11839;SDS011;5979;50.800;4.904;2023-06-10T02:29:57;11.85;;;10.90;;
11839;SDS011;5979;50.800;4.904;2023-06-10T02:32:23;12.32;;;10.68;;
11839;SDS011;5979;50.800;4.904;2023-06-10T02:34:49;12.43;;;11.45;;
11839;SDS011;5979;50.800;4.904;2023-06-10T02:37:15;11.02;;;10.10;;
11839;SDS011;5979;50.800;4.904;2023-06-10T02:39:41;11.45;;;10.65;;
11839;SDS011;5979;50.800;4.904;2023-06-10T02:42:06;10.88;;;10.07;;
11839;SDS011;5979;50.800;4.904;2023-06-10T02:44:32;11.70;;;10.77;;
11839;SDS011;5979;50.800;4.904;2023-06-10T02:46:58;10.00;;;9.20;;
11839;SDS011;5979;50.800;4.904;2023-06-10T02:49:24;10.60;;;9.77;;
11839;SDS011;5979;50.800;4.904;2023-06-10T02:51:50;11.05;;;10.25;;
11839;SDS011;5979;50.800;4.904;2023-06-10T02:54:22;10.75;;;9.95;;
11839;SDS011;5979;50.800;4.904;2023-06-10T02:56:48;11.75;;;10.65;;
11839;SDS011;5979;50.800;4.904;2023-06-10T02:59:14;9.85;;;9.15;;
11839;SDS011;5979;50.800;4.904;2023-06-10T03:01:40;11.85;;;10.85;;
11839;SDS011;5979;50.800;4.904;2023-06-10T03:04:06;11.68;;;10.73;;
11839;SDS011;5979;50.800;4.904;2023-06-10T03:06:33;12.35;;;11.20;;
11839;SDS011;5979;50.800;4.904;2023-06-10T03:09:00;10.95;;;10.07;;
11839;SDS011;5979;50.800;4.904;2023-06-10T03:11:26;11.93;;;10.98;;
11839;SDS011;5979;50.800;4.904;2023-06-10T03:13:51;11.18;;;10.13;;
11839;SDS011;5979;50.800;4.904;2023-06-10T03:16:19;10.70;;;9.63;;
11839;SDS011;5979;50.800;4.904;2023-06-10T03:18:44;10.73;;;9.93;;
11839;SDS011;5979;50.800;4.904;2023-06-10T03:21:10;11.40;;;10.60;;
11839;SDS011;5979;50.800;4.904;2023-06-10T03:23:36;12.48;;;11.48;;
11839;SDS011;5979;50.800;4.904;2023-06-10T03:26:03;10.95;;;10.07;;
11839;SDS011;5979;50.800;4.904;2023-06-10T03:28:30;12.30;;;11.23;;
11839;SDS011;5979;50.800;4.904;2023-06-10T03:30:56;12.20;;;11.30;;
11839;SDS011;5979;50.800;4.904;2023-06-10T03:33:22;11.77;;;10.82;;
11839;SDS011;5979;50.800;4.904;2023-06-10T03:35:48;11.98;;;10.98;;
11839;SDS011;5979;50.800;4.904;2023-06-10T03:38:13;10.95;;;10.15;;
11839;SDS011;5979;50.800;4.904;2023-06-10T03:40:39;11.75;;;10.80;;
11839;SDS011;5979;50.800;4.904;2023-06-10T03:43:05;10.00;;;9.18;;
11839;SDS011;5979;50.800;4.904;2023-06-10T03:45:31;11.48;;;10.48;;
11839;SDS011;5979;50.800;4.904;2023-06-10T03:47:57;12.00;;;11.10;;
11839;SDS011;5979;50.800;4.904;2023-06-10T03:50:22;12.27;;;11.23;;
11839;SDS011;5979;50.800;4.904;2023-06-10T03:52:49;11.77;;;10.93;;
11839;SDS011;5979;50.800;4.904;2023-06-10T03:55:15;12.00;;;11.00;;
11839;SDS011;5979;50.800;4.904;2023-06-10T03:57:42;12.50;;;11.43;;
11839;SDS011;5979;50.800;4.904;2023-06-10T04:00:08;11.90;;;11.00;;
11839;SDS011;5979;50.800;4.904;2023-06-10T04:02:37;10.98;;;10.18;;
11839;SDS011;5979;50.800;4.904;2023-06-10T04:05:06;12.52;;;11.52;;
11839;SDS011;5979;50.800;4.904;2023-06-10T04:07:32;12.70;;;11.68;;
11839;SDS011;5979;50.800;4.904;2023-06-10T04:09:59;12.63;;;11.73;;
11839;SDS011;5979;50.800;4.904;2023-06-10T04:12:25;12.07;;;11.18;;
11839;SDS011;5979;50.800;4.904;2023-06-10T04:14:50;12.48;;;11.48;;
11839;SDS011;5979;50.800;4.904;2023-06-10T04:17:17;12.80;;;11.82;;
11839;SDS011;5979;50.800;4.904;2023-06-10T04:19:42;10.82;;;9.93;;
11839;SDS011;5979;50.800;4.904;2023-06-10T04:22:08;11.00;;;10.20;;
11839;SDS011;5979;50.800;4.904;2023-06-10T04:24:34;12.32;;;11.40;;
11839;SDS011;5979;50.800;4.904;2023-06-10T04:27:00;10.90;;;10.10;;
11839;SDS011;5979;50.800;4.904;2023-06-10T04:29:26;10.55;;;9.75;;
11839;SDS011;5979;50.800;4.904;2023-06-10T04:31:52;11.07;;;10.18;;
11839;SDS011;5979;50.800;4.904;2023-06-10T04:34:17;10.18;;;9.38;;
11839;SDS011;5979;50.800;4.904;2023-06-10T04:36:43;10.65;;;9.85;;
11839;SDS011;5979;50.800;4.904;2023-06-10T04:39:09;9.32;;;8.68;;
11839;SDS011;5979;50.800;4.904;2023-06-10T04:41:34;12.98;;;11.88;;
11839;SDS011;5979;50.800;4.904;2023-06-10T04:44:00;11.07;;;10.00;;
11839;SDS011;5979;50.800;4.904;2023-06-10T04:46:25;10.63;;;9.73;;
11839;SDS011;5979;50.800;4.904;2023-06-10T04:48:51;11.13;;;10.27;;
11839;SDS011;5979;50.800;4.904;2023-06-10T04:51:17;9.63;;;9.02;;
11839;SDS011;5979;50.800;4.904;2023-06-10T04:53:42;10.25;;;9.55;;
11839;SDS011;5979;50.800;4.904;2023-06-10T04:56:09;11.18;;;10.32;;
11839;SDS011;5979;50.800;4.904;2023-06-10T04:58:34;10.23;;;9.43;;
11839;SDS011;5979;50.800;4.904;2023-06-10T05:01:00;12.15;;;9.70;;
11839;SDS011;5979;50.800;4.904;2023-06-10T05:03:26;10.25;;;9.50;;
11839;SDS011;5979;50.800;4.904;2023-06-10T05:05:52;10.70;;;9.50;;
11839;SDS011;5979;50.800;4.904;2023-06-10T05:08:18;12.35;;;10.85;;
11839;SDS011;5979;50.800;4.904;2023-06-10T05:10:43;11.30;;;10.30;;
11839;SDS011;5979;50.800;4.904;2023-06-10T05:13:09;9.25;;;8.45;;
11839;SDS011;5979;50.800;4.904;2023-06-10T05:15:35;10.35;;;9.55;;
11839;SDS011;5979;50.800;4.904;2023-06-10T05:18:01;10.27;;;9.57;;
11839;SDS011;5979;50.800;4.904;2023-06-10T05:20:27;11.90;;;10.75;;
11839;SDS011;5979;50.800;4.904;2023-06-10T05:22:54;11.38;;;10.38;;
11839;SDS011;5979;50.800;4.904;2023-06-10T05:25:20;10.32;;;9.40;;
11839;SDS011;5979;50.800;4.904;2023-06-10T05:27:47;11.60;;;10.70;;
11839;SDS011;5979;50.800;4.904;2023-06-10T05:30:12;11.93;;;10.82;;
11839;SDS011;5979;50.800;4.904;2023-06-10T05:32:38;12.32;;;11.23;;
11839;SDS011;5979;50.800;4.904;2023-06-10T05:35:04;11.80;;;10.30;;
11839;SDS011;5979;50.800;4.904;2023-06-10T05:37:31;11.02;;;10.23;;
11839;SDS011;5979;50.800;4.904;2023-06-10T05:39:58;12.52;;;11.30;;
11839;SDS011;5979;50.800;4.904;2023-06-10T05:42:24;12.45;;;11.55;;
11839;SDS011;5979;50.800;4.904;2023-06-10T05:44:49;12.13;;;10.60;;
11839;SDS011;5979;50.800;4.904;2023-06-10T05:47:15;11.75;;;10.82;;
11839;SDS011;5979;50.800;4.904;2023-06-10T05:49:40;11.27;;;10.50;;
11839;SDS011;5979;50.800;4.904;2023-06-10T05:52:06;11.27;;;10.38;;
11839;SDS011;5979;50.800;4.904;2023-06-10T05:54:32;11.23;;;10.10;;
11839;SDS011;5979;50.800;4.904;2023-06-10T05:56:57;11.50;;;10.38;;
11839;SDS011;5979;50.800;4.904;2023-06-10T05:59:23;11.52;;;10.52;;
11839;SDS011;5979;50.800;4.904;2023-06-10T06:01:49;12.38;;;11.25;;
11839;SDS011;5979;50.800;4.904;2023-06-10T06:04:15;12.20;;;11.10;;
11839;SDS011;5979;50.800;4.904;2023-06-10T06:06:41;11.15;;;10.23;;
11839;SDS011;5979;50.800;4.904;2023-06-10T06:09:07;12.18;;;11.10;;
11839;SDS011;5979;50.800;4.904;2023-06-10T06:11:33;12.43;;;10.73;;
11839;SDS011;5979;50.800;4.904;2023-06-10T06:14:00;12.57;;;11.43;;
11839;SDS011;5979;50.800;4.904;2023-06-10T06:16:25;12.18;;;11.07;;
11839;SDS011;5979;50.800;4.904;2023-06-10T06:18:51;12.02;;;10.80;;
11839;SDS011;5979;50.800;4.904;2023-06-10T06:21:17;11.93;;;9.95;;
11839;SDS011;5979;50.800;4.904;2023-06-10T06:23:42;11.18;;;10.20;;
11839;SDS011;5979;50.800;4.904;2023-06-10T06:26:08;10.60;;;9.57;;
11839;SDS011;5979;50.800;4.904;2023-06-10T06:28:33;13.07;;;11.88;;
11839;SDS011;5979;50.800;4.904;2023-06-10T06:30:59;11.00;;;10.10;;
11839;SDS011;5979;50.800;4.904;2023-06-10T06:33:25;11.27;;;10.02;;
11839;SDS011;5979;50.800;4.904;2023-06-10T06:35:51;11.15;;;10.15;;
11839;SDS011;5979;50.800;4.904;2023-06-10T06:38:17;11.65;;;10.65;;
11839;SDS011;5979;50.800;4.904;2023-06-10T06:40:43;11.93;;;10.98;;
11839;SDS011;5979;50.800;4.904;2023-06-10T06:43:08;11.45;;;10.55;;
11839;SDS011;5979;50.800;4.904;2023-06-10T06:45:34;11.18;;;10.27;;
11839;SDS011;5979;50.800;4.904;2023-06-10T06:48:00;11.52;;;10.45;;
11839;SDS011;5979;50.800;4.904;2023-06-10T06:50:25;10.10;;;9.30;;
11839;SDS011;5979;50.800;4.904;2023-06-10T06:52:51;10.55;;;9.73;;
11839;SDS011;5979;50.800;4.904;2023-06-10T06:55:17;10.45;;;9.65;;
11839;SDS011;5979;50.800;4.904;2023-06-10T06:57:42;11.02;;;9.95;;
11839;SDS011;5979;50.800;4.904;2023-06-10T07:00:09;10.85;;;9.80;;
11839;SDS011;5979;50.800;4.904;2023-06-10T07:02:35;11.63;;;9.57;;
11839;SDS011;5979;50.800;4.904;2023-06-10T07:05:01;10.98;;;10.05;;
11839;SDS011;5979;50.800;4.904;2023-06-10T07:07:28;9.73;;;8.93;;
11839;SDS011;5979;50.800;4.904;2023-06-10T07:09:54;9.68;;;8.88;;
11839;SDS011;5979;50.800;4.904;2023-06-10T07:12:19;9.85;;;9.15;;
11839;SDS011;5979;50.800;4.904;2023-06-10T07:14:48;9.80;;;9.10;;
11839;SDS011;5979;50.800;4.904;2023-06-10T07:17:15;10.13;;;9.13;;
11839;SDS011;5979;50.800;4.904;2023-06-10T07:19:40;10.05;;;9.20;;
11839;SDS011;5979;50.800;4.904;2023-06-10T07:22:06;9.75;;;8.77;;
11839;SDS011;5979;50.800;4.904;2023-06-10T07:24:32;10.02;;;9.15;;
11839;SDS011;5979;50.800;4.904;2023-06-10T07:26:57;10.05;;;9.15;;
11839;SDS011;5979;50.800;4.904;2023-06-10T07:29:23;11.07;;;8.60;;
11839;SDS011;5979;50.800;4.904;2023-06-10T07:31:48;10.00;;;9.20;;
11839;SDS011;5979;50.800;4.904;2023-06-10T07:34:14;10.13;;;9.13;;
11839;SDS011;5979;50.800;4.904;2023-06-10T07:36:40;9.40;;;8.65;;
11839;SDS011;5979;50.800;4.904;2023-06-10T07:39:05;9.73;;;8.52;;
11839;SDS011;5979;50.800;4.904;2023-06-10T07:41:32;9.95;;;8.65;;
11839;SDS011;5979;50.800;4.904;2023-06-10T07:43:57;10.13;;;9.15;;
11839;SDS011;5979;50.800;4.904;2023-06-10T07:46:23;9.40;;;8.70;;
11839;SDS011;5979;50.800;4.904;2023-06-10T07:48:49;8.77;;;7.97;;
11839;SDS011;5979;50.800;4.904;2023-06-10T07:51:16;9.80;;;9.07;;
11839;SDS011;5979;50.800;4.904;2023-06-10T07:53:42;9.73;;;8.98;;
11839;SDS011;5979;50.800;4.904;2023-06-10T07:56:08;9.05;;;8.18;;
11839;SDS011;5979;50.800;4.904;2023-06-10T07:58:33;9.00;;;8.20;;
11839;SDS011;5979;50.800;4.904;2023-06-10T08:00:59;9.40;;;8.60;;
11839;SDS011;5979;50.800;4.904;2023-06-10T08:03:25;10.25;;;8.80;;
11839;SDS011;5979;50.800;4.904;2023-06-10T08:05:50;8.07;;;7.38;;
11839;SDS011;5979;50.800;4.904;2023-06-10T08:08:16;9.18;;;8.32;;
11839;SDS011;5979;50.800;4.904;2023-06-10T08:10:42;8.43;;;7.80;;
11839;SDS011;5979;50.800;4.904;2023-06-10T08:13:08;8.27;;;7.60;;
11839;SDS011;5979;50.800;4.904;2023-06-10T08:15:34;8.02;;;7.53;;
11839;SDS011;5979;50.800;4.904;2023-06-10T08:17:59;8.82;;;7.93;;
11839;SDS011;5979;50.800;4.904;2023-06-10T08:20:25;8.68;;;7.70;;
11839;SDS011;5979;50.800;4.904;2023-06-10T08:22:51;11.25;;;8.30;;
11839;SDS011;5979;50.800;4.904;2023-06-10T08:25:17;8.65;;;7.82;;
11839;SDS011;5979;50.800;4.904;2023-06-10T08:27:42;8.65;;;7.60;;
11839;SDS011;5979;50.800;4.904;2023-06-10T08:30:08;8.00;;;7.25;;
11839;SDS011;5979;50.800;4.904;2023-06-10T08:32:35;8.98;;;7.25;;
11839;SDS011;5979;50.800;4.904;2023-06-10T08:35:02;7.85;;;7.35;;
11839;SDS011;5979;50.800;4.904;2023-06-10T08:37:28;8.40;;;7.60;;
11839;SDS011;5979;50.800;4.904;2023-06-10T08:39:54;9.63;;;7.28;;
11839;SDS011;5979;50.800;4.904;2023-06-10T08:44:53;7.20;;;6.80;;
11839;SDS011;5979;50.800;4.904;2023-06-10T08:47:20;8.13;;;7.43;;
11839;SDS011;5979;50.800;4.904;2023-06-10T08:49:48;7.18;;;6.57;;
11839;SDS011;5979;50.800;4.904;2023-06-10T08:52:15;7.47;;;6.88;;
11839;SDS011;5979;50.800;4.904;2023-06-10T08:55:29;7.25;;;6.78;;
11839;SDS011;5979;50.800;4.904;2023-06-10T08:57:29;7.35;;;6.85;;
11839;SDS011;5979;50.800;4.904;2023-06-10T08:59:56;8.70;;;7.97;;
11839;SDS011;5979;50.800;4.904;2023-06-10T09:02:23;7.88;;;7.30;;
11839;SDS011;5979;50.800;4.904;2023-06-10T09:04:50;7.32;;;6.80;;
11839;SDS011;5979;50.800;4.904;2023-06-10T09:07:16;7.25;;;6.75;;
11839;SDS011;5979;50.800;4.904;2023-06-10T09:09:42;7.78;;;7.00;;
11839;SDS011;5979;50.800;4.904;2023-06-10T09:12:09;9.85;;;7.45;;
11839;SDS011;5979;50.800;4.904;2023-06-10T09:14:36;7.90;;;7.30;;
11839;SDS011;5979;50.800;4.904;2023-06-10T09:17:03;8.25;;;7.65;;
11839;SDS011;5979;50.800;4.904;2023-06-10T09:19:30;8.25;;;7.47;;
11839;SDS011;5979;50.800;4.904;2023-06-10T09:21:55;9.25;;;7.35;;
11839;SDS011;5979;50.800;4.904;2023-06-10T09:24:24;7.50;;;7.00;;
11839;SDS011;5979;50.800;4.904;2023-06-10T09:26:50;10.90;;;6.72;;
11839;SDS011;5979;50.800;4.904;2023-06-10T09:29:27;7.68;;;7.13;;
11839;SDS011;5979;50.800;4.904;2023-06-10T09:31:53;8.23;;;7.63;;
11839;SDS011;5979;50.800;4.904;2023-06-10T09:34:19;7.82;;;7.20;;
11839;SDS011;5979;50.800;4.904;2023-06-10T09:36:49;8.40;;;7.60;;
11839;SDS011;5979;50.800;4.904;2023-06-10T09:39:16;7.45;;;6.85;;
11839;SDS011;5979;50.800;4.904;2023-06-10T09:41:43;8.57;;;7.85;;
11839;SDS011;5979;50.800;4.904;2023-06-10T09:44:14;8.02;;;7.45;;
11839;SDS011;5979;50.800;4.904;2023-06-10T09:46:41;9.32;;;8.18;;
11839;SDS011;5979;50.800;4.904;2023-06-10T09:49:07;8.88;;;8.18;;
11839;SDS011;5979;50.800;4.904;2023-06-10T09:51:33;7.72;;;6.90;;
11839;SDS011;5979;50.800;4.904;2023-06-10T09:53:59;8.23;;;7.63;;
11839;SDS011;5979;50.800;4.904;2023-06-10T09:56:37;8.75;;;7.97;;
11839;SDS011;5979;50.800;4.904;2023-06-10T09:59:03;8.25;;;7.38;;
11839;SDS011;5979;50.800;4.904;2023-06-10T10:01:32;9.07;;;8.27;;
11839;SDS011;5979;50.800;4.904;2023-06-10T10:03:58;8.68;;;7.57;;
11839;SDS011;5979;50.800;4.904;2023-06-10T10:06:25;7.95;;;7.35;;
11839;SDS011;5979;50.800;4.904;2023-06-10T10:08:51;8.07;;;7.38;;
11839;SDS011;5979;50.800;4.904;2023-06-10T10:11:17;7.85;;;7.18;;
11839;SDS011;5979;50.800;4.904;2023-06-10T10:13:47;7.50;;;6.88;;
11839;SDS011;5979;50.800;4.904;2023-06-10T10:16:14;8.10;;;7.55;;
11839;SDS011;5979;50.800;4.904;2023-06-10T10:19:08;8.05;;;7.50;;
11839;SDS011;5979;50.800;4.904;2023-06-10T10:21:43;8.20;;;7.63;;
11839;SDS011;5979;50.800;4.904;2023-06-10T10:24:20;8.02;;;7.43;;
11839;SDS011;5979;50.800;4.904;2023-06-10T10:26:48;7.82;;;7.10;;
11839;SDS011;5979;50.800;4.904;2023-06-10T10:29:26;8.35;;;7.63;;
11839;SDS011;5979;50.800;4.904;2023-06-10T10:31:53;7.63;;;7.00;;
11839;SDS011;5979;50.800;4.904;2023-06-10T10:37:10;7.50;;;7.00;;
11839;SDS011;5979;50.800;4.904;2023-06-10T10:39:35;7.65;;;7.10;;
11839;SDS011;5979;50.800;4.904;2023-06-10T10:42:02;7.60;;;7.10;;
11839;SDS011;5979;50.800;4.904;2023-06-10T10:44:29;7.43;;;6.70;;
11839;SDS011;5979;50.800;4.904;2023-06-10T10:46:56;7.80;;;7.10;;
11839;SDS011;5979;50.800;4.904;2023-06-10T10:49:27;7.07;;;6.57;;
11839;SDS011;5979;50.800;4.904;2023-06-10T10:51:57;8.05;;;6.90;;
11839;SDS011;5979;50.800;4.904;2023-06-10T10:54:28;7.50;;;6.85;;
11839;SDS011;5979;50.800;4.904;2023-06-10T10:57:17;6.70;;;6.20;;
11839;SDS011;5979;50.800;4.904;2023-06-10T10:59:46;7.40;;;6.70;;
11839;SDS011;5979;50.800;4.904;2023-06-10T11:05:08;7.45;;;6.85;;
11839;SDS011;5979;50.800;4.904;2023-06-10T11:07:35;7.57;;;6.97;;
11839;SDS011;5979;50.800;4.904;2023-06-10T11:10:11;6.57;;;6.07;;
11839;SDS011;5979;50.800;4.904;2023-06-10T11:15:10;7.18;;;6.57;;
11839;SDS011;5979;50.800;4.904;2023-06-10T11:26:13;6.32;;;5.90;;
11839;SDS011;5979;50.800;4.904;2023-06-10T11:31:22;7.10;;;5.93;;
11839;SDS011;5979;50.800;4.904;2023-06-10T11:34:22;7.28;;;6.68;;
11839;SDS011;5979;50.800;4.904;2023-06-10T11:36:48;6.72;;;6.20;;
11839;SDS011;5979;50.800;4.904;2023-06-10T11:39:14;6.68;;;6.10;;
11839;SDS011;5979;50.800;4.904;2023-06-10T11:41:40;6.63;;;6.13;;
11839;SDS011;5979;50.800;4.904;2023-06-10T11:46:36;6.75;;;5.95;;
11839;SDS011;5979;50.800;4.904;2023-06-10T11:49:02;6.78;;;6.15;;
11839;SDS011;5979;50.800;4.904;2023-06-10T11:51:32;7.28;;;6.63;;
11839;SDS011;5979;50.800;4.904;2023-06-10T11:53:59;8.32;;;6.80;;
11839;SDS011;5979;50.800;4.904;2023-06-10T11:56:26;11.43;;;6.80;;
11839;SDS011;5979;50.800;4.904;2023-06-10T11:58:53;7.18;;;6.55;;
11839;SDS011;5979;50.800;4.904;2023-06-10T12:01:20;7.20;;;6.70;;
11839;SDS011;5979;50.800;4.904;2023-06-10T12:03:47;7.28;;;6.65;;
11839;SDS011;5979;50.800;4.904;2023-06-10T12:06:13;7.05;;;6.47;;
11839;SDS011;5979;50.800;4.904;2023-06-10T12:08:42;7.20;;;5.80;;
11839;SDS011;5979;50.800;4.904;2023-06-10T12:11:08;7.18;;;6.53;;
11839;SDS011;5979;50.800;4.904;2023-06-10T12:13:34;6.63;;;5.75;;
11839;SDS011;5979;50.800;4.904;2023-06-10T12:16:06;6.50;;;6.10;;
11839;SDS011;5979;50.800;4.904;2023-06-10T12:18:33;6.78;;;6.10;;
11839;SDS011;5979;50.800;4.904;2023-06-10T12:20:59;6.00;;;5.60;;
11839;SDS011;5979;50.800;4.904;2023-06-10T12:23:25;7.20;;;6.28;;
11839;SDS011;5979;50.800;4.904;2023-06-10T12:25:51;7.43;;;6.85;;
11839;SDS011;5979;50.800;4.904;2023-06-10T12:28:22;6.28;;;5.78;;
11839;SDS011;5979;50.800;4.904;2023-06-10T12:30:48;7.55;;;6.20;;
11839;SDS011;5979;50.800;4.904;2023-06-10T12:33:17;6.68;;;6.20;;
11839;SDS011;5979;50.800;4.904;2023-06-10T12:35:48;6.68;;;6.18;;
11839;SDS011;5979;50.800;4.904;2023-06-10T12:38:14;6.70;;;6.20;;
11839;SDS011;5979;50.800;4.904;2023-06-10T12:40:49;6.50;;;5.97;;
11839;SDS011;5979;50.800;4.904;2023-06-10T12:43:22;6.32;;;5.82;;
11839;SDS011;5979;50.800;4.904;2023-06-10T12:45:49;7.03;;;6.53;;
11839;SDS011;5979;50.800;4.904;2023-06-10T12:50:52;6.40;;;6.00;;
11839;SDS011;5979;50.800;4.904;2023-06-10T12:53:21;6.43;;;5.95;;
11839;SDS011;5979;50.800;4.904;2023-06-10T12:55:48;7.07;;;6.47;;
11839;SDS011;5979;50.800;4.904;2023-06-10T12:58:14;8.15;;;6.60;;
11839;SDS011;5979;50.800;4.904;2023-06-10T13:00:40;6.63;;;6.20;;
11839;SDS011;5979;50.800;4.904;2023-06-10T13:03:07;6.85;;;6.25;;
11839;SDS011;5979;50.800;4.904;2023-06-10T13:05:34;6.72;;;6.32;;
11839;SDS011;5979;50.800;4.904;2023-06-10T13:08:02;7.65;;;6.82;;
11839;SDS011;5979;50.800;4.904;2023-06-10T13:10:28;9.90;;;6.45;;
11839;SDS011;5979;50.800;4.904;2023-06-10T13:12:54;6.88;;;6.30;;
11839;SDS011;5979;50.800;4.904;2023-06-10T13:15:20;7.68;;;6.97;;
11839;SDS011;5979;50.800;4.904;2023-06-10T13:17:46;7.20;;;6.60;;
11839;SDS011;5979;50.800;4.904;2023-06-10T13:20:14;8.07;;;7.00;;
11839;SDS011;5979;50.800;4.904;2023-06-10T13:22:43;7.05;;;6.30;;
11839;SDS011;5979;50.800;4.904;2023-06-10T13:25:09;7.10;;;6.38;;
11839;SDS011;5979;50.800;4.904;2023-06-10T13:27:35;6.18;;;5.82;;
11839;SDS011;5979;50.800;4.904;2023-06-10T13:30:04;8.77;;;6.65;;
11839;SDS011;5979;50.800;4.904;2023-06-10T13:32:30;7.47;;;6.78;;
11839;SDS011;5979;50.800;4.904;2023-06-10T13:34:56;7.60;;;6.80;;
11839;SDS011;5979;50.800;4.904;2023-06-10T13:37:22;7.18;;;6.68;;
11839;SDS011;5979;50.800;4.904;2023-06-10T13:39:48;7.38;;;6.68;;
11839;SDS011;5979;50.800;4.904;2023-06-10T13:42:18;6.88;;;6.45;;
11839;SDS011;5979;50.800;4.904;2023-06-10T13:44:47;6.78;;;6.38;;
11839;SDS011;5979;50.800;4.904;2023-06-10T13:47:14;6.78;;;6.22;;
11839;SDS011;5979;50.800;4.904;2023-06-10T13:49:40;7.40;;;6.80;;
11839;SDS011;5979;50.800;4.904;2023-06-10T13:52:06;6.72;;;6.05;;
11839;SDS011;5979;50.800;4.904;2023-06-10T13:54:32;6.70;;;6.10;;
11839;SDS011;5979;50.800;4.904;2023-06-10T13:57:00;7.10;;;6.40;;
11839;SDS011;5979;50.800;4.904;2023-06-10T13:59:27;7.05;;;6.45;;
11839;SDS011;5979;50.800;4.904;2023-06-10T14:01:52;7.45;;;6.72;;
11839;SDS011;5979;50.800;4.904;2023-06-10T14:04:18;7.30;;;6.60;;
11839;SDS011;5979;50.800;4.904;2023-06-10T14:06:44;6.78;;;6.28;;
11839;SDS011;5979;50.800;4.904;2023-06-10T14:09:10;7.07;;;6.45;;
11839;SDS011;5979;50.800;4.904;2023-06-10T14:11:37;7.13;;;6.45;;
11839;SDS011;5979;50.800;4.904;2023-06-10T14:14:03;6.82;;;6.43;;
11839;SDS011;5979;50.800;4.904;2023-06-10T14:16:29;6.40;;;5.80;;
11839;SDS011;5979;50.800;4.904;2023-06-10T14:18:54;7.13;;;6.55;;
11839;SDS011;5979;50.800;4.904;2023-06-10T14:21:20;7.43;;;6.70;;
11839;SDS011;5979;50.800;4.904;2023-06-10T14:23:46;7.05;;;6.45;;
11839;SDS011;5979;50.800;4.904;2023-06-10T14:26:14;7.20;;;6.63;;
11839;SDS011;5979;50.800;4.904;2023-06-10T14:28:39;6.47;;;6.07;;
11839;SDS011;5979;50.800;4.904;2023-06-10T14:31:05;7.28;;;6.60;;
11839;SDS011;5979;50.800;4.904;2023-06-10T14:33:32;6.80;;;6.30;;
11839;SDS011;5979;50.800;4.904;2023-06-10T14:35:58;6.80;;;6.40;;
11839;SDS011;5979;50.800;4.904;2023-06-10T14:38:23;7.88;;;6.80;;
11839;SDS011;5979;50.800;4.904;2023-06-10T14:40:49;7.55;;;6.80;;
11839;SDS011;5979;50.800;4.904;2023-06-10T14:43:15;7.82;;;7.13;;
11839;SDS011;5979;50.800;4.904;2023-06-10T14:45:41;7.00;;;6.53;;
11839;SDS011;5979;50.800;4.904;2023-06-10T14:48:07;7.55;;;7.00;;
11839;SDS011;5979;50.800;4.904;2023-06-10T14:50:34;6.90;;;6.35;;
11839;SDS011;5979;50.800;4.904;2023-06-10T14:53:00;7.13;;;6.57;;
11839;SDS011;5979;50.800;4.904;2023-06-10T14:55:26;7.45;;;6.60;;
11839;SDS011;5979;50.800;4.904;2023-06-10T14:57:51;6.80;;;6.20;;
11839;SDS011;5979;50.800;4.904;2023-06-10T15:00:17;7.70;;;7.10;;
11839;SDS011;5979;50.800;4.904;2023-06-10T15:02:48;8.02;;;6.93;;
11839;SDS011;5979;50.800;4.904;2023-06-10T15:05:15;7.35;;;6.70;;
11839;SDS011;5979;50.800;4.904;2023-06-10T15:07:42;6.80;;;5.90;;
11839;SDS011;5979;50.800;4.904;2023-06-10T15:10:08;6.45;;;5.82;;
11839;SDS011;5979;50.800;4.904;2023-06-10T15:12:35;6.35;;;5.75;;
11839;SDS011;5979;50.800;4.904;2023-06-10T15:15:01;7.43;;;6.70;;
11839;SDS011;5979;50.800;4.904;2023-06-10T15:17:27;6.40;;;6.00;;
11839;SDS011;5979;50.800;4.904;2023-06-10T15:19:53;6.47;;;5.97;;
11839;SDS011;5979;50.800;4.904;2023-06-10T15:22:19;6.55;;;5.95;;
11839;SDS011;5979;50.800;4.904;2023-06-10T15:24:45;6.30;;;5.90;;